Time;durP1;ratioP1;P1;durP2;ratioP2;P2;SDS_P1;SDS_P2;PMS_P1;PMS_P2;Temp;Humidity;BMP_temperature;BMP_pressure;BME280_temperature;BME280_humidity;BME280_pressure;Samples;Min_cycle;Max_cycle;Signal;HPM_P1;HPM_P2
2022/04/27 00:00:03;;;;;;;8.90;4.60;;;10.60;59.00;;;;;;5115744;28;20050;-70
2022/04/27 00:02:30;;;;;;;7.57;4.43;;;10.40;59.30;;;;;;5115631;28;20020;-67
2022/04/27 00:04:59;;;;;;;8.15;4.32;;;10.40;59.80;;;;;;5115571;28;20020;-68
2022/04/27 00:07:26;;;;;;;6.38;4.13;;;10.30;60.10;;;;;;5115603;28;20157;-67
2022/04/27 00:09:52;;;;;;;6.72;4.47;;;10.30;60.10;;;;;;5115514;28;20027;-68
2022/04/27 00:12:17;;;;;;;7.65;4.60;;;10.30;60.20;;;;;;5115507;28;20054;-67
2022/04/27 00:14:43;;;;;;;7.53;3.97;;;10.40;60.10;;;;;;5115467;28;20047;-67
2022/04/27 00:17:08;;;;;;;8.98;4.70;;;10.40;60.10;;;;;;5115400;28;20028;-67
2022/04/27 00:19:34;;;;;;;6.32;4.07;;;10.20;60.30;;;;;;5115383;28;20032;-67
2022/04/27 00:22:00;;;;;;;8.18;4.35;;;10.20;60.40;;;;;;5115261;28;20035;-67
2022/04/27 00:24:25;;;;;;;11.00;4.72;;;10.20;61.20;;;;;;5115274;28;20032;-68
2022/04/27 00:26:51;;;;;;;9.50;4.43;;;10.10;60.70;;;;;;5115051;28;20051;-68
2022/04/27 00:29:17;;;;;;;6.10;3.95;;;10.10;60.50;;;;;;5097396;28;20016;-67
2022/04/27 00:31:43;;;;;;;8.77;4.90;;;10.00;60.70;;;;;;5115122;28;20150;-68
2022/04/27 00:34:08;;;;;;;8.35;4.60;;;10.10;60.60;;;;;;5097291;28;20032;-68
2022/04/27 00:36:35;;;;;;;6.13;4.50;;;10.30;60.20;;;;;;5115010;28;20038;-68
2022/04/27 00:39:03;;;;;;;9.82;4.82;;;10.40;59.90;;;;;;5114964;28;20433;-68
2022/04/27 00:41:29;;;;;;;7.85;4.68;;;10.40;59.30;;;;;;5113896;28;20024;-68
2022/04/27 00:43:55;;;;;;;5.85;4.20;;;10.30;59.10;;;;;;5114806;28;20088;-68
2022/04/27 00:46:21;;;;;;;6.72;4.30;;;10.20;59.00;;;;;;5114970;28;20020;-68
2022/04/27 00:48:47;;;;;;;7.18;4.20;;;10.00;59.30;;;;;;5114782;28;20024;-70
2022/04/27 00:51:18;;;;;;;7.72;4.68;;;9.80;59.80;;;;;;5114753;28;20028;-68
2022/04/27 00:53:45;;;;;;;7.88;4.90;;;9.70;60.30;;;;;;5114885;28;20073;-68
2022/04/27 00:56:12;;;;;;;9.18;5.10;;;9.80;60.30;;;;;;5114615;28;20047;-68
2022/04/27 00:58:38;;;;;;;6.65;4.70;;;9.90;60.30;;;;;;5114560;28;20016;-68
2022/04/27 01:01:03;;;;;;;9.02;5.05;;;9.80;60.50;;;;;;5114516;28;20111;-68
2022/04/27 01:03:29;;;;;;;9.48;4.88;;;9.70;60.60;;;;;;5114402;28;20031;-68
2022/04/27 01:05:56;;;;;;;10.85;5.13;;;9.60;60.90;;;;;;5096611;28;20035;-68
2022/04/27 01:08:22;;;;;;;7.85;4.80;;;9.40;60.80;;;;;;5114429;28;20020;-68
2022/04/27 01:10:49;;;;;;;8.55;4.97;;;9.50;61.40;;;;;;5114492;28;20383;-68
2022/04/27 01:13:15;;;;;;;9.15;5.18;;;9.60;61.40;;;;;;5114440;28;20028;-68
2022/04/27 01:15:41;;;;;;;8.32;4.38;;;9.60;61.20;;;;;;5114236;28;20042;-68
2022/04/27 01:18:11;;;;;;;6.28;4.07;;;9.50;61.20;;;;;;5114194;28;20032;-68
2022/04/27 01:20:38;;;;;;;5.35;4.05;;;9.50;60.90;;;;;;5114221;28;20024;-68
2022/04/27 01:23:05;;;;;;;7.18;4.38;;;9.30;61.70;;;;;;5114044;28;20031;-68
2022/04/27 01:25:55;;;;;;;9.02;5.00;;;9.20;61.50;;;;;;5113854;28;20040;-68
2022/04/27 01:28:24;;;;;;;9.25;4.95;;;9.30;61.30;;;;;;5114164;28;20020;-68
2022/04/27 01:31:01;;;;;;;7.72;4.60;;;9.30;61.70;;;;;;5114025;28;20024;-69
2022/04/27 01:33:29;;;;;;;9.38;4.72;;;9.40;61.30;;;;;;5113966;28;20035;-68
2022/04/27 01:35:56;;;;;;;9.30;4.55;;;9.50;61.00;;;;;;5114074;28;20028;-68
2022/04/27 01:38:21;;;;;;;7.20;4.82;;;9.40;60.60;;;;;;5095842;28;20051;-68
2022/04/27 01:40:51;;;;;;;7.15;4.60;;;9.40;60.50;;;;;;5113760;28;20028;-68
2022/04/27 01:43:19;;;;;;;11.02;4.82;;;9.30;60.50;;;;;;5113701;28;20028;-68
2022/04/27 01:45:45;;;;;;;9.52;4.82;;;9.30;60.70;;;;;;5113729;28;20061;-68
2022/04/27 01:48:11;;;;;;;8.65;4.90;;;9.30;60.50;;;;;;5113709;28;20051;-68
2022/04/27 01:50:37;;;;;;;7.85;4.70;;;9.30;60.50;;;;;;5113669;28;20020;-67
2022/04/27 01:55:48;;;;;;;8.10;4.63;;;9.30;60.70;;;;;;5113678;28;20031;-68
2022/04/27 01:58:14;;;;;;;8.55;4.60;;;9.30;60.80;;;;;;5113582;28;20107;-68
2022/04/27 02:00:39;;;;;;;6.90;4.45;;;9.30;60.60;;;;;;5113566;28;20028;-68
2022/04/27 02:03:05;;;;;;;7.70;4.45;;;9.20;60.10;;;;;;5095687;28;20038;-68
2022/04/27 02:05:31;;;;;;;7.53;4.88;;;9.00;60.30;;;;;;5113470;28;20112;-68
2022/04/27 02:07:57;;;;;;;7.20;4.85;;;9.00;60.40;;;;;;5113424;28;20024;-68
2022/04/27 02:10:23;;;;;;;7.60;4.18;;;9.00;60.50;;;;;;5113403;28;20499;-68
2022/04/27 02:12:49;;;;;;;9.52;4.85;;;9.10;60.60;;;;;;5113400;28;20021;-68
2022/04/27 02:15:14;;;;;;;8.13;4.53;;;9.10;60.10;;;;;;5113405;28;20054;-68
2022/04/27 02:17:40;;;;;;;8.10;5.22;;;9.00;59.90;;;;;;5113350;28;20021;-68
2022/04/27 02:20:08;;;;;;;7.53;4.68;;;8.90;59.90;;;;;;5113383;28;20406;-68
2022/04/27 02:22:34;;;;;;;8.40;4.93;;;8.50;60.40;;;;;;5113246;28;20070;-68
2022/04/27 02:25:01;;;;;;;9.48;4.78;;;8.30;60.80;;;;;;5113248;28;20013;-68
2022/04/27 02:27:27;;;;;;;9.43;4.80;;;8.30;61.40;;;;;;5113304;28;20083;-68
2022/04/27 02:29:53;;;;;;;9.43;4.93;;;8.40;61.30;;;;;;5113160;28;20073;-68
2022/04/27 02:32:19;;;;;;;9.00;5.20;;;8.50;60.90;;;;;;5095339;28;20032;-68
2022/04/27 02:34:45;;;;;;;8.20;5.20;;;8.50;61.00;;;;;;5095305;28;20032;-68
2022/04/27 02:37:10;;;;;;;8.18;5.32;;;8.50;60.90;;;;;;5113174;28;20031;-68
2022/04/27 02:39:36;;;;;;;8.10;4.80;;;8.50;60.70;;;;;;5113158;28;20082;-68
2022/04/27 02:42:02;;;;;;;9.95;4.63;;;8.50;60.80;;;;;;5113082;28;20094;-68
2022/04/27 02:44:27;;;;;;;10.43;5.20;;;8.50;60.80;;;;;;5113127;28;20050;-68
2022/04/27 02:46:53;;;;;;;7.68;4.78;;;8.50;60.70;;;;;;5113061;28;20024;-68
2022/04/27 02:52:03;;;;;;;9.23;4.60;;;8.40;60.50;;;;;;5113202;28;20032;-68
2022/04/27 02:54:28;;;;;;;8.02;4.82;;;8.30;60.60;;;;;;5113029;28;20083;-68
2022/04/27 02:56:54;;;;;;;8.90;4.80;;;8.30;61.00;;;;;;5112997;28;20040;-68
2022/04/27 02:59:20;;;;;;;8.82;4.50;;;8.30;61.20;;;;;;5113064;28;20016;-68
2022/04/27 03:01:46;;;;;;;9.18;4.70;;;8.40;61.40;;;;;;5095022;28;20039;-68
2022/04/27 03:04:12;;;;;;;10.55;4.85;;;8.50;61.50;;;;;;5113845;28;20058;-68
2022/04/27 03:06:38;;;;;;;9.25;5.18;;;8.50;61.90;;;;;;5116784;28;20024;-68
2022/04/27 03:09:03;;;;;;;11.18;5.00;;;8.50;60.90;;;;;;5116710;28;20032;-68
2022/04/27 03:11:29;;;;;;;10.13;4.78;;;8.30;61.30;;;;;;5116633;28;20080;-68
2022/04/27 03:13:55;;;;;;;10.90;4.60;;;8.10;61.30;;;;;;5116618;28;20058;-69
2022/04/27 03:16:20;;;;;;;8.98;5.07;;;8.00;61.60;;;;;;5116567;28;20035;-68
2022/04/27 03:18:46;;;;;;;10.30;4.80;;;8.00;61.80;;;;;;5116518;28;20036;-68
2022/04/27 03:21:12;;;;;;;7.35;4.82;;;8.00;61.80;;;;;;5098549;28;20032;-68
2022/04/27 03:23:38;;;;;;;8.23;4.72;;;7.90;62.00;;;;;;5116372;28;20051;-68
2022/04/27 03:26:04;;;;;;;9.73;5.05;;;7.70;62.50;;;;;;5116211;28;20051;-69
2022/04/27 03:28:29;;;;;;;8.18;4.80;;;7.60;63.10;;;;;;5116294;28;20028;-68
2022/04/27 03:30:55;;;;;;;9.85;4.97;;;7.50;63.50;;;;;;5098353;28;20066;-68
2022/04/27 03:33:21;;;;;;;8.20;4.75;;;7.50;63.50;;;;;;5116381;28;20107;-68
2022/04/27 03:35:47;;;;;;;8.35;5.00;;;7.50;63.60;;;;;;5116184;28;20115;-68
2022/04/27 03:38:15;;;;;;;8.40;4.53;;;7.40;63.50;;;;;;5116281;28;20024;-68
2022/04/27 03:40:46;;;;;;;8.75;4.95;;;7.40;64.30;;;;;;5116143;28;20054;-68
2022/04/27 03:43:13;;;;;;;10.55;5.25;;;7.40;63.80;;;;;;5116035;28;20035;-68
2022/04/27 03:45:38;;;;;;;9.00;5.20;;;7.20;64.00;;;;;;5116007;28;20024;-69
2022/04/27 03:48:04;;;;;;;11.32;5.60;;;7.10;64.30;;;;;;5098121;28;20036;-68
2022/04/27 03:50:30;;;;;;;9.70;5.63;;;7.10;64.80;;;;;;5116056;28;20025;-68
2022/04/27 03:52:56;;;;;;;10.02;4.90;;;7.10;65.30;;;;;;5115873;28;20028;-68
2022/04/27 03:55:21;;;;;;;10.88;5.70;;;7.00;65.30;;;;;;5115814;28;20372;-69
2022/04/27 03:57:47;;;;;;;10.07;5.40;;;7.20;65.30;;;;;;5115790;28;20028;-68
2022/04/27 04:00:13;;;;;;;7.80;4.70;;;7.30;64.80;;;;;;5115851;28;20036;-68
2022/04/27 04:02:39;;;;;;;11.18;5.30;;;7.50;64.30;;;;;;5115591;28;20036;-68
2022/04/27 04:05:05;;;;;;;11.13;5.07;;;7.50;63.60;;;;;;5115673;28;20024;-68
2022/04/27 04:07:31;;;;;;;9.70;5.32;;;7.50;63.90;;;;;;5115586;28;20398;-69
2022/04/27 04:09:57;;;;;;;9.07;5.80;;;7.50;64.00;;;;;;5115695;28;20024;-68
2022/04/27 04:12:23;;;;;;;8.65;5.30;;;7.40;64.20;;;;;;5115481;28;20043;-68
2022/04/27 04:14:49;;;;;;;9.77;5.80;;;7.40;64.40;;;;;;5115325;28;20032;-69
2022/04/27 04:17:14;;;;;;;7.90;5.35;;;7.40;64.40;;;;;;5115431;28;20043;-69
2022/04/27 04:19:40;;;;;;;10.27;5.25;;;7.40;64.30;;;;;;5115355;28;20032;-68
2022/04/27 04:22:08;;;;;;;10.35;5.40;;;7.40;63.90;;;;;;5097369;28;20032;-68
2022/04/27 04:24:33;;;;;;;11.18;5.80;;;7.40;63.70;;;;;;5115241;28;20027;-69
2022/04/27 04:29:43;;;;;;;9.73;5.18;;;7.40;63.80;;;;;;5115246;28;20047;-68
2022/04/27 04:32:09;;;;;;;10.80;5.45;;;7.40;63.60;;;;;;5115061;28;20021;-68
2022/04/27 04:34:34;;;;;;;10.32;5.80;;;7.50;63.50;;;;;;5115071;28;20072;-68
2022/04/27 04:37:01;;;;;;;10.13;6.00;;;7.40;63.30;;;;;;5115023;28;20450;-68
2022/04/27 04:39:27;;;;;;;10.45;6.20;;;7.30;63.60;;;;;;5115114;28;20024;-68
2022/04/27 04:41:52;;;;;;;11.55;6.45;;;7.20;63.30;;;;;;5114858;28;20024;-68
2022/04/27 04:44:18;;;;;;;10.85;5.95;;;7.20;63.40;;;;;;5114874;28;20024;-68
2022/04/27 04:46:44;;;;;;;10.98;5.80;;;7.20;63.60;;;;;;5114835;28;20033;-68
2022/04/27 04:49:09;;;;;;;11.65;6.47;;;7.20;63.20;;;;;;5114767;28;20032;-68
2022/04/27 04:51:35;;;;;;;8.77;5.35;;;7.10;63.20;;;;;;5114869;28;20051;-68
2022/04/27 04:54:00;;;;;;;10.32;5.95;;;7.20;63.30;;;;;;5114675;28;20032;-68
2022/04/27 04:56:26;;;;;;;12.70;6.35;;;7.20;63.30;;;;;;5096613;28;20028;-68
2022/04/27 04:58:52;;;;;;;12.55;6.40;;;7.20;64.40;;;;;;5114463;28;20032;-68
2022/04/27 05:01:17;;;;;;;10.73;6.20;;;7.20;63.90;;;;;;5114694;28;20024;-68
2022/04/27 05:03:43;;;;;;;9.38;6.63;;;7.10;64.10;;;;;;5114436;28;20028;-68
2022/04/27 05:06:08;;;;;;;11.77;6.63;;;7.20;64.00;;;;;;5114396;28;20066;-68
2022/04/27 05:08:34;;;;;;;10.65;6.50;;;7.20;64.20;;;;;;5114533;28;20096;-68
2022/04/27 05:11:00;;;;;;;10.15;5.82;;;7.30;64.10;;;;;;5096347;28;20043;-69
2022/04/27 05:13:25;;;;;;;12.10;6.53;;;7.30;64.10;;;;;;5096349;28;20100;-68
2022/04/27 05:15:52;;;;;;;12.93;6.70;;;7.20;64.40;;;;;;5114291;28;20083;-68
2022/04/27 05:18:18;;;;;;;12.20;6.88;;;7.00;65.00;;;;;;5114257;28;20091;-68
2022/04/27 05:20:44;;;;;;;9.93;6.00;;;7.10;65.40;;;;;;5096352;28;20035;-68
2022/04/27 05:23:13;;;;;;;11.98;6.45;;;6.90;66.20;;;;;;5114072;28;20020;-68
2022/04/27 05:25:38;;;;;;;11.95;7.15;;;7.00;66.60;;;;;;5113925;28;20082;-68
2022/04/27 05:28:04;;;;;;;11.18;6.30;;;7.00;67.20;;;;;;5113555;28;20425;-68
2022/04/27 05:33:18;;;;;;;12.68;6.88;;;6.80;67.80;;;;;;5114071;28;20043;-68
2022/04/27 05:35:44;;;;;;;13.05;7.32;;;7.00;67.60;;;;;;5113956;28;20024;-69
2022/04/27 05:38:11;;;;;;;13.55;6.70;;;7.20;67.10;;;;;;5113910;28;20024;-68
2022/04/27 05:40:41;;;;;;;14.30;7.05;;;7.30;66.80;;;;;;5113807;28;20035;-69
2022/04/27 05:43:09;;;;;;;13.57;7.25;;;7.40;67.00;;;;;;5113721;28;20084;-69
2022/04/27 05:45:35;;;;;;;13.77;7.38;;;7.50;67.20;;;;;;5113772;28;20016;-68
2022/04/27 05:48:01;;;;;;;12.50;6.97;;;7.60;67.20;;;;;;5113765;28;20031;-69
2022/04/27 05:50:27;;;;;;;12.90;7.20;;;7.70;67.10;;;;;;5113640;28;20020;-69
2022/04/27 05:52:56;;;;;;;11.48;7.25;;;7.70;67.90;;;;;;5113635;28;20078;-69
2022/04/27 05:55:22;;;;;;;13.70;8.23;;;7.80;68.90;;;;;;5113632;28;20088;-68
2022/04/27 05:57:48;;;;;;;14.18;7.35;;;7.80;68.60;;;;;;5113621;28;20037;-69
2022/04/27 06:00:15;;;;;;;14.93;7.82;;;7.90;68.70;;;;;;5113558;28;20028;-69
2022/04/27 06:02:41;;;;;;;15.55;8.32;;;8.10;68.90;;;;;;5113428;28;20072;-69
2022/04/27 06:05:08;;;;;;;17.80;8.52;;;8.20;69.10;;;;;;5113471;28;20035;-69
2022/04/27 06:07:35;;;;;;;15.57;8.85;;;8.30;69.20;;;;;;5113512;28;20056;-69
2022/04/27 06:10:02;;;;;;;16.88;8.52;;;8.40;69.30;;;;;;5113444;28;20020;-68
2022/04/27 06:12:34;;;;;;;18.08;9.55;;;8.50;69.20;;;;;;5113471;28;20088;-69
2022/04/27 06:15:00;;;;;;;17.55;9.50;;;8.50;69.30;;;;;;5095515;28;20035;-69
2022/04/27 06:17:26;;;;;;;15.82;9.15;;;8.60;69.20;;;;;;5113380;28;20087;-69
2022/04/27 06:19:51;;;;;;;16.90;9.65;;;8.70;69.30;;;;;;5113299;28;20052;-69
2022/04/27 06:22:20;;;;;;;19.77;10.02;;;8.80;69.30;;;;;;5113359;28;20032;-68
2022/04/27 06:24:45;;;;;;;14.75;9.75;;;8.80;69.30;;;;;;5113126;28;20479;-71
2022/04/27 06:27:11;;;;;;;19.17;10.15;;;8.90;69.40;;;;;;5113281;28;20039;-68
2022/04/27 06:29:36;;;;;;;16.10;8.85;;;9.00;69.30;;;;;;5113166;28;20047;-68
2022/04/27 06:32:02;;;;;;;16.90;9.30;;;9.00;69.30;;;;;;5113246;28;20092;-68
2022/04/27 06:34:28;;;;;;;17.15;9.50;;;9.00;69.40;;;;;;5113253;28;20021;-70
2022/04/27 06:36:54;;;;;;;15.07;9.38;;;9.10;69.60;;;;;;5113248;28;20142;-69
2022/04/27 06:39:19;;;;;;;18.50;9.25;;;9.20;69.60;;;;;;5114396;28;20016;-69
2022/04/27 06:41:45;;;;;;;16.80;8.98;;;9.20;69.50;;;;;;5117253;28;20027;-68
2022/04/27 06:44:11;;;;;;;17.55;8.82;;;9.20;69.50;;;;;;5117152;28;20039;-68
2022/04/27 06:46:36;;;;;;;19.33;9.65;;;9.30;69.30;;;;;;5117280;28;20083;-68
2022/04/27 06:49:02;;;;;;;16.00;8.85;;;9.40;69.80;;;;;;5099243;28;20035;-69
2022/04/27 06:51:28;;;;;;;14.65;8.80;;;9.30;69.50;;;;;;5117110;28;20028;-68
2022/04/27 06:53:53;;;;;;;15.25;8.30;;;9.40;69.40;;;;;;5099276;28;20024;-69
2022/04/27 06:56:19;;;;;;;16.80;9.40;;;9.50;69.40;;;;;;5117021;28;20036;-69
2022/04/27 06:58:44;;;;;;;21.33;9.20;;;9.60;69.60;;;;;;5099231;28;20151;-68
2022/04/27 07:01:10;;;;;;;17.00;9.30;;;9.70;69.40;;;;;;5116893;28;20039;-69
2022/04/27 07:03:38;;;;;;;16.02;8.63;;;9.80;69.40;;;;;;5116882;28;20074;-69
2022/04/27 07:06:04;;;;;;;17.08;9.02;;;9.70;68.80;;;;;;5116777;28;20024;-68
2022/04/27 07:08:30;;;;;;;18.70;8.57;;;9.80;68.70;;;;;;5116788;28;20024;-69
2022/04/27 07:10:55;;;;;;;16.95;8.60;;;9.90;68.60;;;;;;5116831;28;20419;-69
2022/04/27 07:13:22;;;;;;;17.70;9.13;;;10.00;68.40;;;;;;5116663;28;20076;-69
2022/04/27 07:15:48;;;;;;;16.15;8.52;;;10.00;68.50;;;;;;5116646;28;20024;-69
2022/04/27 07:18:14;;;;;;;16.33;8.55;;;10.10;69.20;;;;;;5116606;28;20030;-68
2022/04/27 07:20:40;;;;;;;12.45;7.68;;;10.20;69.10;;;;;;5116532;28;20025;-69
2022/04/27 07:23:05;;;;;;;17.38;8.23;;;10.20;69.30;;;;;;5116409;28;20035;-69
2022/04/27 07:25:31;;;;;;;14.10;8.40;;;10.20;69.00;;;;;;5116270;28;20067;-69
2022/04/27 07:27:57;;;;;;;13.68;7.25;;;10.30;69.20;;;;;;5116388;28;20035;-69
2022/04/27 07:30:23;;;;;;;11.80;6.88;;;10.40;69.00;;;;;;5116350;28;20027;-69
2022/04/27 07:32:49;;;;;;;9.93;6.43;;;10.50;68.50;;;;;;5116409;28;20024;-68
2022/04/27 07:35:15;;;;;;;12.93;6.75;;;10.50;68.30;;;;;;5116246;28;20024;-69
2022/04/27 07:37:41;;;;;;;11.18;5.85;;;10.60;67.80;;;;;;5116225;28;20047;-69
2022/04/27 07:40:10;;;;;;;10.85;5.85;;;10.70;66.30;;;;;;5116164;28;20028;-69
2022/04/27 07:42:36;;;;;;;9.10;5.07;;;10.80;66.20;;;;;;5116007;28;20025;-68
2022/04/27 07:45:02;;;;;;;10.52;5.40;;;10.90;66.20;;;;;;5116088;28;20055;-69
2022/04/27 07:47:27;;;;;;;10.45;5.45;;;11.00;65.50;;;;;;5098053;28;20044;-69
2022/04/27 07:49:53;;;;;;;9.35;5.43;;;11.00;62.90;;;;;;5115427;28;20057;-69
2022/04/27 07:52:18;;;;;;;10.80;5.13;;;11.00;63.80;;;;;;5115900;28;20036;-68
2022/04/27 07:54:45;;;;;;;10.30;5.20;;;11.20;64.80;;;;;;5115976;28;20032;-68
2022/04/27 07:57:10;;;;;;;7.68;4.65;;;11.30;63.00;;;;;;5115794;28;20050;-69
2022/04/27 07:59:36;;;;;;;6.50;3.85;;;11.40;63.00;;;;;;5115671;28;20040;-68
2022/04/27 08:02:02;;;;;;;4.53;3.25;;;11.50;62.30;;;;;;5115668;28;20032;-69
2022/04/27 08:04:27;;;;;;;8.70;4.07;;;11.70;61.20;;;;;;5115675;28;20078;-69
2022/04/27 08:06:53;;;;;;;8.40;3.95;;;11.70;60.40;;;;;;5097797;28;20029;-69
2022/04/27 08:09:18;;;;;;;7.30;3.75;;;11.90;61.00;;;;;;5115578;28;20024;-69
2022/04/27 08:11:44;;;;;;;6.65;3.58;;;11.90;60.20;;;;;;5115700;28;20044;-69
2022/04/27 08:14:10;;;;;;;7.78;4.03;;;12.00;59.00;;;;;;5115512;28;20019;-69
2022/04/27 08:16:35;;;;;;;9.00;3.75;;;12.10;58.30;;;;;;5115444;28;20036;-69
2022/04/27 08:19:01;;;;;;;5.70;3.58;;;12.20;59.60;;;;;;5115394;28;20036;-69
2022/04/27 08:21:27;;;;;;;7.85;3.70;;;12.20;59.80;;;;;;5115369;28;20058;-69
2022/04/27 08:23:53;;;;;;;6.35;3.97;;;12.30;58.70;;;;;;5115243;28;20025;-69
2022/04/27 08:26:19;;;;;;;7.50;3.95;;;12.40;56.90;;;;;;5115057;28;20048;-69
2022/04/27 08:28:45;;;;;;;8.48;3.88;;;12.50;57.40;;;;;;5115240;28;20035;-69
2022/04/27 08:31:13;;;;;;;7.22;3.60;;;12.50;55.20;;;;;;5115211;28;20052;-69
2022/04/27 08:33:39;;;;;;;8.90;3.78;;;12.50;56.00;;;;;;5115112;28;20020;-69
2022/04/27 08:36:06;;;;;;;5.80;3.45;;;12.50;56.40;;;;;;5115079;28;20043;-69
2022/04/27 08:38:34;;;;;;;7.75;3.85;;;12.60;56.30;;;;;;5115009;28;20036;-68
2022/04/27 08:41:00;;;;;;;5.25;3.60;;;12.60;53.80;;;;;;5114979;28;20028;-69
2022/04/27 08:43:26;;;;;;;6.18;3.60;;;12.50;55.00;;;;;;5097188;28;20050;-69
2022/04/27 08:45:52;;;;;;;6.53;3.60;;;12.70;56.40;;;;;;5114902;28;20397;-69
2022/04/27 08:48:18;;;;;;;6.60;3.60;;;12.80;56.20;;;;;;5114930;28;20020;-69
2022/04/27 08:50:46;;;;;;;6.32;3.15;;;12.90;56.30;;;;;;5114801;28;20025;-69
2022/04/27 08:53:12;;;;;;;8.00;3.92;;;13.00;56.20;;;;;;5114740;28;20024;-69
2022/04/27 08:55:40;;;;;;;8.40;4.13;;;13.20;56.10;;;;;;5114632;28;20032;-69
2022/04/27 08:58:15;;;;;;;7.85;4.47;;;13.30;55.60;;;;;;5114690;28;20081;-69
2022/04/27 09:00:42;;;;;;;7.82;4.13;;;13.30;53.80;;;;;;5114730;28;20057;-69
2022/04/27 09:03:39;;;;;;;7.78;3.90;;;13.30;54.00;;;;;;5095886;28;20020;-70
2022/04/27 09:06:07;;;;;;;12.30;4.45;;;13.30;52.40;;;;;;5114546;28;20020;-69
2022/04/27 09:08:46;;;;;;;8.85;4.88;;;13.20;53.00;;;;;;5114408;28;20032;-69
2022/04/27 09:11:15;;;;;;;9.15;5.20;;;13.30;54.70;;;;;;5114388;28;20016;-69
2022/04/27 09:13:52;;;;;;;9.40;4.50;;;13.40;55.20;;;;;;5114368;28;20035;-71
2022/04/27 09:16:21;;;;;;;9.35;4.50;;;13.40;53.30;;;;;;5114364;28;20020;-69
2022/04/27 09:22:06;;;;;;;4.65;3.13;;;13.50;53.80;;;;;;5114327;28;20095;-69
2022/04/27 09:24:51;;;;;;;;;;;13.70;51.60;;;;;;5110486;28;20460;-69
2022/04/27 09:27:18;;;;;;;5.28;2.92;;;13.80;51.90;;;;;;5114112;28;19922;-69
2022/04/27 09:30:07;;;;;;;6.47;3.55;;;13.80;50.70;;;;;;5113991;28;20016;-69
2022/04/27 09:32:34;;;;;;;7.78;3.58;;;13.90;51.00;;;;;;5114034;28;20020;-69
2022/04/27 09:35:02;;;;;;;8.05;4.20;;;14.00;49.80;;;;;;5113968;28;20083;-69
2022/04/27 09:37:30;;;;;;;7.90;4.10;;;14.00;51.40;;;;;;5113940;28;20027;-69
2022/04/27 09:40:08;;;;;;;9.63;4.00;;;14.20;51.20;;;;;;5113871;28;20111;-69
2022/04/27 09:42:36;;;;;;;5.72;3.17;;;14.30;50.80;;;;;;5113881;28;20024;-69
2022/04/27 09:45:23;;;;;;;9.27;4.03;;;14.40;48.60;;;;;;5113930;28;20036;-69
2022/04/27 09:47:53;;;;;;;6.88;3.72;;;14.30;46.80;;;;;;5113772;28;20047;-69
2022/04/27 09:50:19;;;;;;;7.85;3.72;;;14.30;47.30;;;;;;5113857;28;20016;-69
2022/04/27 09:52:45;;;;;;;10.90;4.13;;;14.40;48.50;;;;;;5113668;28;20040;-69
2022/04/27 09:55:11;;;;;;;7.00;3.80;;;14.50;49.90;;;;;;5113671;28;20020;-69
2022/04/27 09:57:38;;;;;;;9.10;4.28;;;14.70;49.60;;;;;;5113604;28;20058;-69
2022/04/27 10:00:05;;;;;;;8.10;4.10;;;14.90;49.50;;;;;;5113604;28;20034;-69
2022/04/27 10:02:34;;;;;;;7.97;4.18;;;14.90;48.40;;;;;;5113501;28;20044;-69
2022/04/27 10:05:01;;;;;;;7.93;4.57;;;15.10;48.80;;;;;;5113504;28;20038;-69
2022/04/27 10:07:31;;;;;;;8.23;4.57;;;15.20;47.40;;;;;;5113507;28;20059;-69
2022/04/27 10:09:59;;;;;;;5.88;4.22;;;15.20;47.70;;;;;;5113497;28;20027;-69
2022/04/27 10:12:24;;;;;;;6.25;4.63;;;15.30;45.90;;;;;;5113401;28;20028;-69
2022/04/27 10:14:50;;;;;;;6.75;3.92;;;15.30;46.50;;;;;;5113376;28;20039;-69
2022/04/27 10:17:16;;;;;;;7.82;4.60;;;15.30;46.60;;;;;;5113352;28;20029;-69
2022/04/27 10:19:47;;;;;;;6.72;4.35;;;15.40;46.00;;;;;;5113262;28;20032;-69
2022/04/27 10:22:45;;;;;;;7.40;4.40;;;15.30;45.20;;;;;;5113278;28;20032;-69
2022/04/27 10:25:13;;;;;;;8.45;4.70;;;15.30;46.00;;;;;;5057730;28;20052;-69
2022/04/27 10:27:41;;;;;;;8.80;4.63;;;15.40;46.50;;;;;;5113191;28;20084;-69
2022/04/27 10:30:13;;;;;;;7.40;4.50;;;15.40;47.20;;;;;;5113261;28;20024;-69
2022/04/27 10:32:51;;;;;;;9.23;4.90;;;15.50;46.40;;;;;;5113268;28;20032;-69
2022/04/27 10:35:17;;;;;;;8.52;5.03;;;15.50;46.20;;;;;;5095291;28;20035;-69
2022/04/27 10:37:57;;;;;;;7.60;4.93;;;15.50;46.30;;;;;;5113193;28;20386;-69
2022/04/27 10:40:37;;;;;;;9.25;5.57;;;15.60;47.10;;;;;;5113185;28;20024;-69
2022/04/27 10:43:15;;;;;;;8.57;5.38;;;15.70;46.90;;;;;;5113242;28;20031;-69
2022/04/27 10:45:43;;;;;;;7.88;5.40;;;15.80;46.60;;;;;;5113281;28;20031;-70
2022/04/27 10:48:17;;;;;;;9.18;5.47;;;15.80;45.90;;;;;;5095180;28;20024;-69
2022/04/27 10:51:07;;;;;;;9.70;5.20;;;15.90;47.60;;;;;;5113122;28;20020;-69
2022/04/27 10:53:40;;;;;;;7.28;5.03;;;16.10;46.40;;;;;;5113237;28;20025;-69
2022/04/27 10:56:25;;;;;;;6.60;4.88;;;16.20;45.90;;;;;;5113022;28;20024;-69
2022/04/27 10:58:51;;;;;;;8.70;5.60;;;16.30;44.80;;;;;;5113042;28;20032;-69
2022/04/27 11:01:31;;;;;;;9.82;5.30;;;16.40;45.00;;;;;;5112945;28;20032;-69
2022/04/27 11:04:03;;;;;;;8.98;5.22;;;16.40;43.90;;;;;;5112953;28;20032;-69
2022/04/27 11:06:51;;;;;;;7.60;5.18;;;16.40;43.20;;;;;;5112985;28;20079;-69
2022/04/27 11:09:38;;;;;;;7.80;5.20;;;16.10;41.80;;;;;;5112968;28;20028;-69
2022/04/27 11:12:04;;;;;;;8.10;5.07;;;15.90;45.00;;;;;;5113005;28;20044;-69
2022/04/27 11:14:34;;;;;;;7.70;5.43;;;16.10;45.40;;;;;;5112844;28;20016;-69
2022/04/27 11:17:00;;;;;;;9.07;5.57;;;16.20;45.90;;;;;;5112951;28;20024;-69
2022/04/27 11:19:39;;;;;;;8.00;4.93;;;16.30;44.80;;;;;;5112812;28;20099;-69
2022/04/27 11:22:23;;;;;;;12.07;5.70;;;16.30;44.50;;;;;;5094886;28;20506;-69
2022/04/27 11:24:49;;;;;;;8.43;5.15;;;16.30;45.00;;;;;;5113008;28;20034;-70
2022/04/27 11:27:26;;;;;;;8.60;5.50;;;16.30;44.40;;;;;;5116293;28;20040;-69
2022/04/27 11:29:53;;;;;;;7.20;5.50;;;16.20;44.90;;;;;;5116330;28;20048;-69
2022/04/27 11:32:18;;;;;;;9.48;5.57;;;16.30;44.30;;;;;;5116335;28;20021;-69
2022/04/27 11:34:50;;;;;;;9.60;5.28;;;16.40;44.60;;;;;;5116314;28;20089;-69
2022/04/27 11:37:18;;;;;;;7.88;5.60;;;16.60;44.40;;;;;;5116289;28;20055;-69
2022/04/27 11:39:44;;;;;;;7.72;5.38;;;16.70;44.30;;;;;;5116211;28;20017;-69
2022/04/27 11:42:12;;;;;;;6.55;4.78;;;16.70;44.00;;;;;;5116096;28;20035;-69
2022/04/27 11:44:39;;;;;;;8.32;5.35;;;16.80;44.20;;;;;;5116108;28;20031;-69
2022/04/27 11:47:23;;;;;;;7.60;4.90;;;16.90;41.90;;;;;;5116210;28;20021;-69
2022/04/27 11:50:00;;;;;;;8.82;5.47;;;16.90;41.40;;;;;;5116003;28;20418;-69
2022/04/27 11:52:26;;;;;;;8.40;6.15;;;16.90;42.50;;;;;;5115993;28;20035;-69
2022/04/27 11:54:52;;;;;;;9.45;5.43;;;17.00;43.70;;;;;;5115902;28;20413;-69
2022/04/27 11:57:24;;;;;;;9.23;5.88;;;17.20;43.30;;;;;;5115889;28;20032;-69
2022/04/27 11:59:51;;;;;;;8.23;5.13;;;17.30;43.10;;;;;;5097921;28;20496;-69
2022/04/27 12:02:23;;;;;;;9.40;5.43;;;17.40;43.40;;;;;;5097777;28;20032;-69
2022/04/27 12:04:51;;;;;;;10.82;5.25;;;17.60;43.50;;;;;;5115731;28;20024;-69
2022/04/27 12:07:18;;;;;;;8.85;5.75;;;17.60;42.90;;;;;;5115834;28;20027;-69
2022/04/27 12:10:23;;;;;;;10.77;5.32;;;17.70;42.90;;;;;;5115706;28;20020;-69
2022/04/27 12:12:48;;;;;;;10.43;6.05;;;17.60;41.50;;;;;;4997520;28;20030;-69
2022/04/27 12:15:15;;;;;;;7.82;5.72;;;17.50;42.10;;;;;;5013889;28;20045;-70
2022/04/27 12:18:01;;;;;;;9.75;5.57;;;17.50;42.10;;;;;;5044834;28;20036;-70
2022/04/27 12:20:29;;;;;;;10.18;6.10;;;17.40;41.80;;;;;;5115436;28;20047;-70
2022/04/27 12:22:59;;;;;;;11.02;6.25;;;17.30;42.40;;;;;;5115276;28;20024;-70
2022/04/27 12:25:45;;;;;;;10.90;6.30;;;17.40;42.40;;;;;;5115129;28;20047;-70
2022/04/27 12:28:16;;;;;;;7.85;5.97;;;17.50;41.80;;;;;;5115246;28;20470;-69
2022/04/27 12:30:48;;;;;;;9.73;6.18;;;17.50;40.80;;;;;;5115393;28;20062;-69
2022/04/27 12:33:16;;;;;;;8.40;5.45;;;17.50;39.50;;;;;;5115378;28;20391;-69
2022/04/27 12:38:28;;;;;;;11.55;6.65;;;17.30;40.10;;;;;;5115131;28;20054;-69
2022/04/27 12:40:55;;;;;;;8.23;5.82;;;17.00;40.90;;;;;;5115007;28;20020;-69
2022/04/27 12:43:22;;;;;;;8.65;5.50;;;17.00;41.70;;;;;;5114904;28;20025;-69
2022/04/27 12:46:07;;;;;;;8.35;5.72;;;17.00;41.80;;;;;;5114904;28;20475;-69
2022/04/27 12:48:35;;;;;;;8.02;5.95;;;17.00;41.80;;;;;;5114884;28;20500;-69
2022/04/27 12:51:01;;;;;;;7.75;5.90;;;17.10;42.20;;;;;;5114823;28;20076;-69
2022/04/27 12:53:27;;;;;;;10.18;7.05;;;17.30;42.00;;;;;;5114913;28;20052;-71
2022/04/27 12:56:15;;;;;;;8.68;5.85;;;17.50;41.20;;;;;;5096948;28;20433;-69
2022/04/27 12:58:41;;;;;;;11.57;6.63;;;17.70;40.20;;;;;;5096712;28;20024;-69
2022/04/27 13:01:07;;;;;;;8.98;6.03;;;17.80;41.00;;;;;;5114758;28;20050;-69
2022/04/27 13:03:34;;;;;;;9.45;6.50;;;17.90;41.00;;;;;;5114537;28;20094;-69
2022/04/27 13:05:59;;;;;;;11.63;6.95;;;18.00;40.20;;;;;;5114557;28;20050;-69
2022/04/27 13:08:25;;;;;;;9.02;6.68;;;18.20;39.50;;;;;;5114532;28;20032;-69